Woodsboro, Maryland
Current Conditions -  °F | °C
As of 12:30 AM on Wednesday 22 Oct 2014 (Local Time) from KFDK Reporting Station
Thunderstorm Thunderstorm  
Wind Chill: 55°   Ceiling: 6000
Heat Index: 55°   Visibility: 4mi
Dew Point: 52°   Wind: 0mph
Humidity: 88%   Direction: NA
Pressure: 29.94"   Gusts: NA
Location:  39.53°N, 77.31°W
Report Text: KFDK 220430Z AUTO 00000KT 4SM VCTSRA SCT038 SCT050 OVC060 13/11 A2994 RMK AO2 LTG DSNT E P0003
Loading
Personal Weather Stations






























Interactive Weather Map
Tropical Storm Tracking
New forecast layout! Learn more

10-Day Weather Forecast

Advertisements
Track Severe Weather on mobile